createdAt,value
2019-02-11T00:00:03.366Z,7.9
2019-02-11T00:01:04.947Z,7.3
2019-02-11T00:02:06.499Z,7.5
2019-02-11T00:03:07.730Z,7.8
2019-02-11T00:04:09.088Z,7.2
2019-02-11T00:05:10.631Z,7.5
2019-02-11T00:06:12.041Z,7.8
2019-02-11T00:07:13.573Z,7.9
2019-02-11T00:08:14.947Z,7.9
2019-02-11T00:09:16.376Z,7.9
2019-02-11T00:10:17.909Z,7.9
2019-02-11T00:11:19.169Z,7.9
2019-02-11T00:12:20.721Z,7.4
2019-02-11T00:13:22.105Z,7.6
2019-02-11T00:14:23.639Z,7.8
2019-02-11T00:15:25.157Z,7.9
2019-02-11T00:16:26.562Z,7.9
2019-02-11T00:17:27.986Z,7.4
2019-02-11T00:18:29.535Z,7.7
2019-02-11T00:19:31.133Z,7.8
2019-02-11T00:20:32.683Z,7.9
2019-02-11T00:21:34.211Z,7.3
2019-02-11T00:22:35.726Z,7.5
2019-02-11T00:23:37.250Z,7.6
2019-02-11T00:24:38.834Z,7.7
2019-02-11T00:25:40.374Z,7.9
2019-02-11T00:26:41.759Z,7.9
2019-02-11T00:27:43.165Z,7.9
2019-02-11T00:28:44.703Z,7.9
2019-02-11T00:29:46.224Z,7.9
2019-02-11T00:30:47.771Z,7.9
2019-02-11T00:31:49.319Z,7.2
2019-02-11T00:32:51.292Z,7.4
2019-02-11T00:33:52.535Z,7.5
2019-02-11T00:34:54.064Z,7.6
2019-02-11T00:35:55.433Z,7.7
2019-02-11T00:36:56.945Z,7.8
2019-02-11T00:37:58.472Z,7.9
2019-02-11T00:39:00.019Z,7.9
2019-02-11T00:40:01.543Z,7.9
2019-02-11T00:41:02.940Z,7.9
2019-02-11T00:42:04.471Z,7.9
2019-02-11T00:43:05.696Z,7.9
2019-02-11T00:44:07.138Z,7.9
2019-02-11T00:45:08.356Z,7.9
2019-02-11T00:46:09.900Z,7.9
2019-02-11T00:47:11.420Z,7.9
2019-02-11T00:48:12.955Z,7.9
2019-02-11T00:49:14.341Z,7.9
2019-02-11T00:50:15.559Z,7.9
2019-02-11T00:51:17.112Z,7.9
2019-02-11T00:52:18.686Z,7.9
2019-02-11T00:53:20.064Z,7.9
2019-02-11T00:54:21.579Z,7.9
2019-02-11T00:55:23.111Z,7.9
2019-02-11T00:56:24.655Z,7.9
2019-02-11T00:57:26.177Z,7.9
2019-02-11T00:58:27.707Z,7.9
2019-02-11T00:59:29.273Z,7.9
2019-02-11T01:00:30.803Z,7.9
2019-02-11T01:01:32.329Z,7.9
2019-02-11T01:02:33.564Z,7.9
2019-02-11T01:03:34.783Z,7.9
2019-02-11T01:04:36.180Z,7.9
2019-02-11T01:05:37.715Z,7.9
2019-02-11T01:06:39.081Z,7.9
2019-02-11T01:07:40.629Z,7.9
2019-02-11T01:08:42.003Z,7.9
2019-02-11T01:09:43.387Z,7.9
2019-02-11T01:10:44.909Z,7.9
2019-02-11T01:11:46.332Z,7.9
2019-02-11T01:12:47.711Z,7.9
2019-02-11T01:13:48.937Z,7.9
2019-02-11T01:14:50.534Z,7.9
2019-02-11T01:15:51.913Z,7.9
2019-02-11T01:16:53.463Z,7.9
2019-02-11T01:17:54.974Z,7.9
2019-02-11T01:18:57.207Z,7.9
2019-02-11T01:19:58.733Z,7.9
2019-02-11T01:21:00.259Z,7.9
2019-02-11T01:22:01.775Z,7.9
2019-02-11T01:23:03.153Z,7.8
2019-02-11T01:24:04.523Z,7.8
2019-02-11T01:25:05.733Z,7.8
2019-02-11T01:26:07.285Z,7.8
2019-02-11T01:27:08.655Z,7.8
2019-02-11T01:28:09.878Z,7.8
2019-02-11T01:29:11.083Z,7.8
2019-02-11T01:30:12.613Z,7.8
2019-02-11T01:31:14.143Z,7.8
2019-02-11T01:32:15.663Z,7.8
2019-02-11T01:33:17.191Z,7.9
2019-02-11T01:34:18.737Z,7.9
2019-02-11T01:35:20.113Z,7.9
2019-02-11T01:36:21.477Z,7.9
2019-02-11T01:37:22.874Z,7.8
2019-02-11T01:38:24.405Z,7.8
2019-02-11T01:39:25.953Z,7.8
2019-02-11T01:40:27.485Z,7.8
2019-02-11T01:41:29.017Z,7.8
2019-02-11T01:42:30.572Z,7.8
2019-02-11T01:43:37.559Z,7.8
2019-02-11T01:44:39.073Z,7.8
2019-02-11T01:45:40.287Z,7.8
2019-02-11T01:46:41.663Z,7.9
2019-02-11T01:47:42.886Z,7.9
2019-02-11T01:48:44.256Z,7.9
2019-02-11T01:49:45.618Z,7.9
2019-02-11T01:50:47.143Z,7.9
2019-02-11T01:51:48.357Z,7.9
2019-02-11T01:52:49.905Z,7.8
2019-02-11T01:53:51.129Z,7.8
2019-02-11T01:54:52.499Z,7.8
2019-02-11T01:55:53.707Z,7.9
2019-02-11T01:56:55.233Z,7.9
2019-02-11T01:57:56.755Z,7.9
2019-02-11T01:58:58.305Z,7.9
2019-02-11T01:59:59.838Z,7.9
2019-02-11T02:01:01.201Z,7.9
2019-02-11T02:02:02.741Z,7.8
2019-02-11T02:03:04.111Z,7.8
2019-02-11T02:04:05.654Z,7.8
2019-02-11T02:05:07.216Z,7.8
2019-02-11T02:06:08.591Z,7.8
2019-02-11T02:07:10.113Z,7.7
2019-02-11T02:08:11.493Z,7.6
2019-02-11T02:09:12.724Z,7.6
2019-02-11T02:10:14.541Z,7.4
2019-02-11T02:11:16.086Z,7.3
2019-02-11T02:12:17.457Z,7.2
2019-02-11T02:13:18.975Z,7.2
2019-02-11T02:14:20.225Z,7.2
2019-02-11T02:15:21.741Z,7.2
2019-02-11T02:16:23.107Z,7.2
2019-02-11T02:17:24.481Z,7.2
2019-02-11T02:18:25.995Z,7.2
2019-02-11T02:19:27.211Z,7.2
2019-02-11T02:20:28.437Z,7.2
2019-02-11T02:21:29.954Z,7.1
2019-02-11T02:22:31.322Z,7.2
2019-02-11T02:23:32.835Z,7.1
2019-02-11T02:24:34.343Z,7.1
2019-02-11T02:25:35.566Z,7.1
2019-02-11T02:26:37.095Z,7.1
2019-02-11T02:27:38.601Z,7.1
2019-02-11T02:28:40.113Z,7.1
2019-02-11T02:29:41.503Z,7.1
2019-02-11T02:30:42.730Z,7.1
2019-02-11T02:31:44.112Z,7.1
2019-02-11T02:32:45.881Z,7.1
2019-02-11T02:33:47.263Z,7.1
2019-02-11T02:34:48.801Z,7.1
2019-02-11T02:35:50.321Z,7.1
2019-02-11T02:36:51.893Z,7.1
2019-02-11T02:37:53.423Z,7.1
2019-02-11T02:38:54.795Z,7.1
2019-02-11T02:39:56.173Z,7.1
2019-02-11T02:40:57.744Z,7.1
2019-02-11T02:41:59.273Z,7.1
2019-02-11T02:43:00.810Z,7.1
2019-02-11T02:44:02.347Z,7.1
2019-02-11T02:45:03.874Z,7.1
2019-02-11T02:46:05.093Z,7.1
2019-02-11T02:47:06.659Z,7.1
2019-02-11T02:48:07.882Z,7.1
2019-02-11T02:49:09.413Z,7.2
2019-02-11T02:50:10.953Z,7.2
2019-02-11T02:51:12.339Z,7.2
2019-02-11T02:52:13.899Z,7.2
2019-02-11T02:53:15.291Z,7.2
2019-02-11T02:54:16.652Z,7.2
2019-02-11T02:55:18.199Z,7.2
2019-02-11T02:56:19.733Z,7.1
2019-02-11T02:57:21.317Z,7.2
2019-02-11T02:58:22.874Z,7.2
2019-02-11T02:59:24.243Z,7.2
2019-02-11T03:00:25.789Z,7.2
2019-02-11T03:01:27.344Z,7.2
2019-02-11T03:02:28.875Z,7.2
2019-02-11T03:03:30.425Z,7.2
2019-02-11T03:04:31.958Z,7.2
2019-02-11T03:05:33.346Z,7.2
2019-02-11T03:06:34.569Z,7.2
2019-02-11T03:07:36.104Z,7.2
2019-02-11T03:08:37.343Z,7.3
2019-02-11T03:09:38.714Z,7.3
2019-02-11T03:10:40.092Z,7.3
2019-02-11T03:11:41.632Z,7.4
2019-02-11T03:12:43.167Z,7.5
2019-02-11T03:13:44.733Z,7.5
2019-02-11T03:14:46.132Z,7.6
2019-02-11T03:15:47.516Z,7.7
2019-02-11T03:16:49.063Z,7.7
2019-02-11T03:17:50.435Z,7.8
2019-02-11T03:18:51.997Z,7.8
2019-02-11T03:19:53.352Z,7.8
2019-02-11T03:20:54.583Z,7.8
2019-02-11T03:21:56.136Z,7.8
2019-02-11T03:22:58.773Z,7.8
2019-02-11T03:24:00.354Z,7.8
2019-02-11T03:25:01.934Z,7.8
2019-02-11T03:26:03.427Z,7.8
2019-02-11T03:27:04.814Z,7.9
2019-02-11T03:28:06.373Z,7.9
2019-02-11T03:29:07.749Z,7.9
2019-02-11T03:30:09.456Z,7.9
2019-02-11T03:31:11.108Z,7.9
2019-02-11T03:32:12.528Z,7.9
2019-02-11T03:33:13.984Z,7.9
2019-02-11T03:34:15.362Z,7.9
2019-02-11T03:35:16.942Z,7.9
2019-02-11T03:36:18.487Z,7.9
2019-02-11T03:37:19.868Z,7.9
2019-02-11T03:38:21.247Z,7.9
2019-02-11T03:39:22.637Z,7.9
2019-02-11T03:40:24.245Z,7.9
2019-02-11T03:41:25.669Z,7.9
2019-02-11T03:42:27.041Z,7.9
2019-02-11T03:43:28.237Z,7.9
2019-02-11T03:44:29.782Z,7.8
2019-02-11T03:45:31.167Z,7.8
2019-02-11T03:46:32.394Z,7.8
2019-02-11T03:47:33.776Z,7.8
2019-02-11T03:48:35.315Z,7.8
2019-02-11T03:49:36.948Z,7.8
2019-02-11T03:50:38.516Z,7.8
2019-02-11T03:51:40.079Z,7.8
2019-02-11T03:52:41.603Z,7.9
2019-02-11T03:53:43.164Z,7.9
2019-02-11T03:54:44.685Z,7.9
2019-02-11T03:55:46.257Z,7.2
2019-02-11T03:56:47.467Z,7.3
2019-02-11T03:57:49.013Z,7.3
2019-02-11T03:58:50.408Z,7.3
2019-02-11T03:59:51.835Z,7.3
2019-02-11T04:00:53.411Z,7.3
2019-02-11T04:01:54.962Z,7.2
2019-02-11T04:02:56.341Z,7.2
2019-02-11T04:03:57.723Z,7.2
2019-02-11T04:04:59.083Z,7.2
2019-02-11T04:06:00.603Z,7.1
2019-02-11T04:07:01.981Z,7.1
2019-02-11T04:08:03.497Z,7.1
2019-02-11T04:09:04.866Z,7.1
2019-02-11T04:10:06.403Z,7.1
2019-02-11T04:11:07.939Z,7.1
2019-02-11T04:12:09.445Z,7.1
2019-02-11T04:13:10.809Z,7.1
2019-02-11T04:14:12.223Z,7.1
2019-02-11T04:15:13.595Z,7.1
2019-02-11T04:16:14.974Z,7.1
2019-02-11T04:17:16.374Z,7.1
2019-02-11T04:18:17.905Z,7.2
2019-02-11T04:19:19.419Z,7.1
2019-02-11T04:20:20.948Z,7.2
2019-02-11T04:21:22.665Z,7.2
2019-02-11T04:22:23.793Z,7.2
2019-02-11T04:23:25.323Z,7.2
2019-02-11T04:24:26.726Z,7.2
2019-02-11T04:25:28.101Z,7.2
2019-02-11T04:26:29.643Z,7.2
2019-02-11T04:27:31.024Z,7.2
2019-02-11T04:28:33.899Z,7.2
2019-02-11T04:29:35.275Z,7.2
2019-02-11T04:30:36.659Z,7.3
2019-02-11T04:31:38.916Z,7.3
2019-02-11T04:32:40.565Z,7.4
2019-02-11T04:33:41.991Z,7.4
2019-02-11T04:34:43.538Z,7.5
2019-02-11T04:35:44.970Z,7.5
2019-02-11T04:36:46.505Z,7.6
2019-02-11T04:37:47.887Z,7.7
2019-02-11T04:38:49.265Z,7.8
2019-02-11T04:39:50.824Z,7.8
2019-02-11T04:40:52.378Z,7.9
2019-02-11T04:42:08.625Z,7.9
2019-02-11T04:43:10.201Z,7.9
2019-02-11T04:44:11.599Z,7.9
2019-02-11T04:45:13.176Z,7.9
2019-02-11T04:46:14.724Z,7.9
2019-02-11T04:47:15.951Z,7.7
2019-02-11T04:48:17.534Z,7.8
2019-02-11T04:49:18.803Z,7.9
2019-02-11T04:50:20.201Z,7.9
2019-02-11T04:51:21.636Z,7.9
2019-02-11T04:52:23.024Z,7.9
2019-02-11T04:53:24.598Z,7.9
2019-02-11T04:54:26.160Z,7.9
2019-02-11T04:55:27.705Z,7.9
2019-02-11T04:56:29.272Z,7.9
2019-02-11T04:57:30.829Z,7.9
2019-02-11T04:58:32.222Z,7.9
2019-02-11T04:59:33.653Z,7.9
2019-02-11T05:00:34.921Z,7.9
2019-02-11T05:01:36.488Z,7.9
2019-02-11T05:02:37.797Z,7.9
2019-02-11T05:03:39.373Z,7.9
2019-02-11T05:04:40.968Z,7.9
2019-02-11T05:05:42.371Z,7.9
2019-02-11T05:06:43.762Z,7.9
2019-02-11T05:07:45.344Z,7.9
2019-02-11T05:08:46.906Z,7.9
2019-02-11T05:09:48.462Z,7.9
2019-02-11T05:10:49.837Z,7.9
2019-02-11T05:11:51.324Z,7.8
2019-02-11T05:12:52.729Z,7.9
2019-02-11T05:13:54.296Z,7.9
2019-02-11T05:14:55.693Z,7.9
2019-02-11T05:15:57.274Z,7.9
2019-02-11T05:16:58.692Z,7.9
2019-02-11T05:18:00.247Z,7.9
2019-02-11T05:19:01.826Z,7.9
2019-02-11T05:20:03.277Z,7.9
2019-02-11T05:21:04.966Z,7.9
2019-02-11T05:22:06.486Z,7.9
2019-02-11T05:23:07.874Z,7.9
2019-02-11T05:24:09.676Z,7.9
2019-02-11T05:25:11.301Z,7.9
2019-02-11T05:26:12.878Z,7.9
2019-02-11T05:27:14.268Z,7.9
2019-02-11T05:28:15.839Z,7.9
2019-02-11T05:29:17.396Z,7.9
2019-02-11T05:30:19.007Z,7.9
2019-02-11T05:31:20.575Z,7.9
2019-02-11T05:32:21.728Z,7.8
2019-02-11T05:33:23.670Z,7.9
2019-02-11T05:34:25.266Z,7.8
2019-02-11T05:35:26.642Z,7.8
2019-02-11T05:36:28.013Z,7.8
2019-02-11T05:37:29.086Z,7.8
2019-02-11T05:38:30.536Z,7.8
2019-02-11T05:39:32.090Z,7.8
2019-02-11T05:40:33.701Z,7.8
2019-02-11T05:41:35.224Z,7.7
2019-02-11T05:42:36.757Z,7.7
2019-02-11T05:43:38.149Z,7.5
2019-02-11T05:44:39.583Z,7.4
2019-02-11T05:45:41.117Z,7.2
2019-02-11T05:46:42.654Z,7.1
2019-02-11T05:47:44.173Z,7.1
2019-02-11T05:48:45.598Z,7.1
2019-02-11T05:49:47.363Z,7.1
2019-02-11T05:50:48.894Z,7.1
2019-02-11T05:51:50.434Z,7.1
2019-02-11T05:52:51.824Z,7.1
2019-02-11T05:53:53.354Z,7.1
2019-02-11T05:54:54.919Z,7.1
2019-02-11T05:55:56.472Z,7.1
2019-02-11T05:56:57.845Z,7.1
2019-02-11T05:57:58.933Z,7.1
2019-02-11T05:59:00.309Z,7.1
2019-02-11T06:00:02.037Z,7.2
2019-02-11T06:01:03.642Z,7.2
2019-02-11T06:02:05.164Z,7.2
2019-02-11T06:03:06.544Z,7.2
2019-02-11T06:04:08.124Z,7.2
2019-02-11T06:05:09.640Z,7.2
2019-02-11T06:06:11.028Z,7.2
2019-02-11T06:07:12.566Z,7.2
2019-02-11T06:08:13.926Z,7.2
2019-02-11T06:09:15.452Z,7.2
2019-02-11T06:10:16.996Z,7.2
2019-02-11T06:11:18.066Z,7.2
2019-02-11T06:12:19.615Z,7.2
2019-02-11T06:13:35.711Z,7.2
2019-02-11T06:14:37.262Z,7.3
2019-02-11T06:15:38.823Z,7.4
2019-02-11T06:16:40.213Z,7.4
2019-02-11T06:17:41.774Z,7.5
2019-02-11T06:18:43.152Z,7.6
2019-02-11T06:19:44.712Z,7.6
2019-02-11T06:20:45.931Z,7.7
2019-02-11T06:21:47.304Z,7.7
2019-02-11T06:22:48.832Z,7.8
2019-02-11T06:23:50.346Z,7.8
2019-02-11T06:24:51.904Z,7.8
2019-02-11T06:25:53.021Z,7.9
2019-02-11T06:26:54.269Z,7.9
2019-02-11T06:27:55.814Z,7.8
2019-02-11T06:28:57.204Z,7.8
2019-02-11T06:29:58.589Z,7.9
2019-02-11T06:31:00.184Z,7.8
2019-02-11T06:32:01.829Z,7.9
2019-02-11T06:33:03.507Z,7.9
2019-02-11T06:34:05.464Z,7.9
2019-02-11T06:35:07.003Z,7.9
2019-02-11T06:36:14.234Z,7.9
2019-02-11T06:37:15.805Z,7.9
2019-02-11T06:38:17.337Z,7.9
2019-02-11T06:39:18.934Z,7.9
2019-02-11T06:40:20.485Z,7.8
2019-02-11T06:41:21.866Z,7.8
2019-02-11T06:42:23.463Z,7.8
2019-02-11T06:43:24.678Z,7.9
2019-02-11T06:44:26.294Z,7.8
2019-02-11T06:45:27.848Z,7.9
2019-02-11T06:46:30.750Z,7.2
2019-02-11T06:47:32.294Z,7.3
2019-02-11T06:48:33.697Z,7.4
2019-02-11T06:49:49.970Z,7.4
2019-02-11T06:50:51.505Z,7.5
2019-02-11T06:51:53.029Z,7.5
2019-02-11T06:52:54.579Z,7.5
2019-02-11T06:53:56.097Z,7.5
2019-02-11T06:54:57.662Z,7.6
2019-02-11T06:55:59.199Z,7.6
2019-02-11T06:57:00.604Z,7.7
2019-02-11T06:58:02.179Z,7.7
2019-02-11T06:59:03.733Z,7.8
2019-02-11T07:00:05.247Z,7.8
2019-02-11T07:01:06.830Z,7.8
2019-02-11T07:02:08.400Z,7.8
2019-02-11T07:03:09.930Z,7.8
2019-02-11T07:04:11.366Z,7.8
2019-02-11T07:05:12.914Z,7.8
2019-02-11T07:06:14.481Z,7.8
2019-02-11T07:07:16.010Z,7.9
2019-02-11T07:08:17.547Z,7.9
2019-02-11T07:09:19.084Z,7.9
2019-02-11T07:10:20.608Z,7.9
2019-02-11T07:11:21.984Z,7.9
2019-02-11T07:12:23.224Z,7.9
2019-02-11T07:13:24.765Z,7.9
2019-02-11T07:14:26.137Z,7.9
2019-02-11T07:15:27.666Z,7.9
2019-02-11T07:16:29.218Z,7.9
2019-02-11T07:17:30.763Z,7.9
2019-02-11T07:18:32.319Z,7.9
2019-02-11T07:19:33.707Z,7.9
2019-02-11T07:20:35.236Z,7.9
2019-02-11T07:21:36.300Z,7.9
2019-02-11T07:22:37.700Z,7.2
2019-02-11T07:23:39.204Z,7.3
2019-02-11T07:24:40.604Z,7.3
2019-02-11T07:25:42.165Z,7.4
2019-02-11T07:26:43.698Z,7.4
2019-02-11T07:27:44.905Z,7.5
2019-02-11T07:28:46.444Z,7.5
2019-02-11T07:29:47.809Z,7.5
2019-02-11T07:30:49.182Z,7.5
2019-02-11T07:31:50.734Z,7.5
2019-02-11T07:32:52.111Z,7.5
2019-02-11T07:33:53.671Z,7.4
2019-02-11T07:34:55.242Z,7.4
2019-02-11T07:35:56.932Z,7.3
2019-02-11T07:36:58.313Z,7.2
2019-02-11T07:37:59.688Z,7.2
2019-02-11T07:39:01.084Z,7.2
2019-02-11T07:40:02.624Z,7.2
2019-02-11T07:41:04.003Z,7.2
2019-02-11T07:42:06.163Z,7.2
2019-02-11T07:43:07.694Z,7.1
2019-02-11T07:44:08.895Z,7.1
2019-02-11T07:45:10.414Z,7.1
2019-02-11T07:46:11.952Z,7.1
2019-02-11T07:47:13.494Z,7.1
2019-02-11T07:48:14.900Z,7.1
2019-02-11T07:49:17.131Z,7.1
2019-02-11T07:50:18.545Z,7.1
2019-02-11T07:51:20.068Z,7.1
2019-02-11T07:52:28.310Z,7.1
2019-02-11T07:53:29.718Z,7.2
2019-02-11T07:54:31.285Z,7.2
2019-02-11T07:55:32.505Z,7.2
2019-02-11T07:56:34.063Z,7.2
2019-02-11T07:57:35.602Z,7.2
2019-02-11T07:58:37.281Z,7.2
2019-02-11T07:59:38.909Z,7.2
2019-02-11T08:00:40.344Z,7.3
2019-02-11T08:01:41.910Z,7.3
2019-02-11T08:02:43.455Z,7.4
2019-02-11T08:03:44.875Z,7.5
2019-02-11T08:04:46.425Z,7.6
2019-02-11T08:05:47.959Z,7.8
2019-02-11T08:06:49.504Z,7.9
2019-02-11T08:07:51.035Z,7.7
2019-02-11T08:08:52.584Z,7.9
2019-02-11T08:09:54.115Z,7.8
2019-02-11T08:10:55.669Z,7.9
2019-02-11T08:11:57.198Z,7.9
2019-02-11T08:12:58.584Z,7.8
2019-02-11T08:14:00.002Z,7.9
2019-02-11T08:15:01.595Z,7.9
2019-02-11T08:16:03.155Z,7.8
2019-02-11T08:17:04.718Z,7.8
2019-02-11T08:18:06.278Z,7.9
2019-02-11T08:19:07.672Z,7.9
2019-02-11T08:20:09.075Z,7.9
2019-02-11T08:21:10.475Z,7.9
2019-02-11T08:22:12.040Z,7.9
2019-02-11T08:23:15.361Z,7.9
2019-02-11T08:24:16.732Z,7.9
2019-02-11T08:25:18.267Z,7.9
2019-02-11T08:26:19.659Z,7.9
2019-02-11T08:27:21.035Z,7.9
2019-02-11T08:28:22.422Z,7.9
2019-02-11T08:29:23.677Z,7.9
2019-02-11T08:30:25.206Z,7.9
2019-02-11T08:31:26.741Z,7.9
2019-02-11T08:32:28.285Z,7.9
2019-02-11T08:33:31.515Z,7.9
2019-02-11T08:34:32.891Z,7.9
2019-02-11T08:35:34.308Z,7.9
2019-02-11T08:36:35.846Z,7.9
2019-02-11T08:37:37.378Z,7.9
2019-02-11T08:38:38.945Z,7.9
2019-02-11T08:39:40.176Z,7.9
2019-02-11T08:40:44.251Z,7.9
2019-02-11T08:41:47.127Z,7.9
2019-02-11T08:42:48.521Z,7.9
2019-02-11T08:43:50.050Z,7.9
2019-02-11T08:44:51.615Z,7.9
2019-02-11T08:45:53.144Z,7.9
2019-02-11T08:46:54.539Z,7.9
2019-02-11T08:47:55.902Z,7.9
2019-02-11T08:48:57.595Z,7.8
2019-02-11T08:49:59.229Z,7.9
2019-02-11T08:51:00.824Z,7.9
2019-02-11T08:52:02.205Z,7.9
2019-02-11T08:53:03.747Z,7.9
2019-02-11T08:54:05.282Z,7.9
2019-02-11T08:55:06.820Z,7.9
2019-02-11T08:56:08.195Z,7.9
2019-02-11T08:57:09.563Z,7.9
2019-02-11T08:58:10.786Z,7.9
2019-02-11T08:59:12.326Z,7.9
2019-02-11T09:00:13.884Z,7.9
2019-02-11T09:01:15.254Z,7.9
2019-02-11T09:02:16.793Z,7.1
2019-02-11T09:03:18.333Z,7.3
2019-02-11T09:04:20.693Z,7.3
2019-02-11T09:05:22.071Z,7.4
2019-02-11T09:06:23.453Z,7.4
2019-02-11T09:07:24.737Z,7.4
2019-02-11T09:08:26.310Z,7.3
2019-02-11T09:09:27.850Z,7.2
2019-02-11T09:10:29.402Z,7.2
2019-02-11T09:11:30.955Z,7.2
2019-02-11T09:12:32.509Z,7.1
2019-02-11T09:13:34.025Z,7.2
2019-02-11T09:14:35.575Z,7.1
2019-02-11T09:15:37.106Z,7.1
2019-02-11T09:16:38.639Z,7.1
2019-02-11T09:17:40.029Z,7.1
2019-02-11T09:18:41.567Z,7.1
2019-02-11T09:19:43.104Z,7.1
2019-02-11T09:20:44.652Z,7.1
2019-02-11T09:21:46.011Z,7.1
2019-02-11T09:22:47.547Z,7.1
2019-02-11T09:23:48.916Z,7.2
2019-02-11T09:24:50.453Z,7.2
2019-02-11T09:25:52.025Z,7.2
2019-02-11T09:26:53.441Z,7.2
2019-02-11T09:27:55.008Z,7.2
2019-02-11T09:28:56.622Z,7.2
2019-02-11T09:29:57.740Z,7.2
2019-02-11T09:30:59.287Z,7.3
2019-02-11T09:32:00.815Z,7.3
2019-02-11T09:33:02.304Z,7.4
2019-02-11T09:34:03.685Z,7.4
2019-02-11T09:35:05.547Z,7.5
2019-02-11T09:36:06.599Z,7.6
2019-02-11T09:37:07.969Z,7.7
2019-02-11T09:38:09.511Z,7.8
2019-02-11T09:39:10.725Z,7.8
2019-02-11T09:40:12.105Z,7.9
2019-02-11T09:41:13.639Z,7.9
2019-02-11T09:42:15.815Z,7.9
2019-02-11T09:43:17.225Z,7.9
2019-02-11T09:44:18.771Z,7.8
2019-02-11T09:45:20.325Z,7.9
2019-02-11T09:46:21.885Z,7.9
2019-02-11T09:47:23.442Z,7.5
2019-02-11T09:48:24.527Z,7.6
2019-02-11T09:49:25.930Z,7.7
2019-02-11T09:50:27.317Z,7.8
2019-02-11T09:51:28.710Z,7.9
2019-02-11T09:52:30.108Z,7.9
2019-02-11T09:53:31.661Z,7.9
2019-02-11T09:54:33.215Z,7.6
2019-02-11T09:55:34.594Z,7.7
2019-02-11T09:56:36.141Z,7.8
2019-02-11T09:57:37.563Z,7.9
2019-02-11T09:58:39.716Z,7.9
2019-02-11T09:59:41.140Z,7.9
2019-02-11T10:00:42.695Z,7.9
2019-02-11T10:01:44.126Z,7.9
2019-02-11T10:02:45.550Z,7.9
2019-02-11T10:03:46.776Z,7.9
2019-02-11T10:04:48.334Z,7.9
2019-02-11T10:05:49.892Z,7.9
2019-02-11T10:06:51.433Z,7.9
2019-02-11T10:07:52.650Z,7.9
2019-02-11T10:08:53.703Z,7.6
2019-02-11T10:09:55.082Z,7.8
2019-02-11T10:10:56.312Z,7.9
2019-02-11T10:11:57.532Z,7.5
2019-02-11T10:12:58.891Z,7.7
2019-02-11T10:14:00.261Z,7.9
2019-02-11T10:15:01.936Z,7.9
2019-02-11T10:16:03.476Z,7.9
2019-02-11T10:17:04.875Z,7.9
2019-02-11T10:18:06.265Z,7.9
2019-02-11T10:19:07.486Z,7.8
2019-02-11T10:20:09.065Z,7.1
2019-02-11T10:21:10.616Z,7.4
2019-02-11T10:22:12.158Z,7.5
2019-02-11T10:23:13.557Z,7.7
2019-02-11T10:24:14.935Z,7.8
2019-02-11T10:25:16.500Z,7.9
2019-02-11T10:26:17.915Z,7.5
2019-02-11T10:27:19.495Z,7.7
2019-02-11T10:28:21.043Z,7.8
2019-02-11T10:29:22.105Z,7.9
2019-02-11T10:30:23.537Z,7.6
2019-02-11T10:31:25.079Z,7.8
2019-02-11T10:32:26.638Z,7.9
2019-02-11T10:33:28.183Z,7.8
2019-02-11T10:34:29.732Z,7.9
2019-02-11T10:35:31.296Z,7.9
2019-02-11T10:36:32.843Z,7.9
2019-02-11T10:37:34.399Z,7.9
2019-02-11T10:38:38.189Z,7.9
2019-02-11T10:39:39.737Z,7.8
2019-02-11T10:40:41.319Z,7.8
2019-02-11T10:41:42.879Z,7.7
2019-02-11T10:42:44.421Z,7.6
2019-02-11T10:43:48.316Z,7.5
2019-02-11T10:44:49.419Z,7.3
2019-02-11T10:45:51.181Z,7.2
2019-02-11T10:46:52.269Z,7.2
2019-02-11T10:47:53.663Z,7.1
2019-02-11T10:48:55.038Z,7.1
2019-02-11T10:49:56.416Z,7.1
2019-02-11T10:50:57.985Z,7.1
2019-02-11T10:51:59.546Z,7.1
2019-02-11T10:53:01.069Z,7.1
2019-02-11T10:54:02.485Z,7.1
2019-02-11T10:55:04.050Z,7.1
2019-02-11T10:56:05.474Z,7.2
2019-02-11T10:57:06.893Z,7.2
2019-02-11T10:58:08.288Z,7.2
2019-02-11T10:59:09.759Z,7.2
2019-02-11T11:00:11.148Z,7.2
2019-02-11T11:01:14.523Z,7.2
2019-02-11T11:02:15.929Z,7.2
2019-02-11T11:03:17.165Z,7.2
2019-02-11T11:04:18.576Z,7.3
2019-02-11T11:05:20.126Z,7.3
2019-02-11T11:06:21.509Z,7.4
2019-02-11T11:07:23.070Z,7.4
2019-02-11T11:08:24.442Z,7.5
2019-02-11T11:09:26.009Z,7.5
2019-02-11T11:10:27.422Z,7.6
2019-02-11T11:11:28.800Z,7.7
2019-02-11T11:12:30.193Z,7.7
2019-02-11T11:13:31.454Z,7.8
2019-02-11T11:14:32.727Z,7.8
2019-02-11T11:15:34.125Z,7.9
2019-02-11T11:16:35.394Z,7.9
2019-02-11T11:17:36.624Z,7.9
2019-02-11T11:18:38.196Z,7.9
2019-02-11T11:19:39.764Z,7.9
2019-02-11T11:20:41.338Z,7.9
2019-02-11T11:21:42.911Z,7.9
2019-02-11T11:22:44.452Z,7.8
2019-02-11T11:23:46.006Z,7.8
2019-02-11T11:24:47.591Z,7.8
2019-02-11T11:25:49.017Z,7.8
2019-02-11T11:26:50.566Z,7.8
2019-02-11T11:27:52.116Z,7.8
2019-02-11T11:28:53.694Z,7.9
2019-02-11T11:29:55.088Z,7.9
2019-02-11T11:30:56.632Z,7.9
2019-02-11T11:31:58.016Z,7.9
2019-02-11T11:32:59.406Z,7.9
2019-02-11T11:34:00.957Z,7.9
2019-02-11T11:35:02.416Z,7.9
2019-02-11T11:36:03.794Z,7.9
2019-02-11T11:37:05.328Z,7.2
2019-02-11T11:38:06.552Z,7.3
2019-02-11T11:39:08.111Z,7.3
2019-02-11T11:40:09.652Z,7.4
2019-02-11T11:41:11.205Z,7.5
2019-02-11T11:42:12.601Z,7.6
2019-02-11T11:43:14.159Z,7.7
2019-02-11T11:44:15.714Z,7.7
2019-02-11T11:45:16.947Z,7.8
2019-02-11T11:46:20.197Z,7.9
2019-02-11T11:47:21.773Z,7.9
2019-02-11T11:48:23.122Z,7.9
2019-02-11T11:49:24.498Z,7.9
2019-02-11T11:50:26.042Z,7.9
2019-02-11T11:51:27.605Z,7.9
2019-02-11T11:52:29.146Z,7.9
2019-02-11T11:53:30.744Z,7.9
2019-02-11T11:54:32.152Z,7.9
2019-02-11T11:55:33.693Z,7.8
2019-02-11T11:56:35.308Z,7.8
2019-02-11T11:57:37.010Z,7.7
2019-02-11T11:58:38.677Z,7.6
2019-02-11T11:59:40.430Z,7.5
2019-02-11T12:00:41.931Z,7.4
2019-02-11T12:01:43.604Z,7.2
2019-02-11T12:03:07.130Z,7.2
2019-02-11T12:04:08.812Z,7.2
2019-02-11T12:05:10.231Z,7.2
2019-02-11T12:06:11.816Z,7.2
2019-02-11T12:07:13.329Z,7.2
2019-02-11T12:08:14.913Z,7.2
2019-02-11T12:09:16.543Z,7.2
2019-02-11T12:10:18.159Z,7.2
2019-02-11T12:11:19.663Z,7.2
2019-02-11T12:12:21.113Z,7.2
2019-02-11T12:13:25.412Z,7.2
2019-02-11T12:14:26.929Z,7.2
2019-02-11T12:15:28.738Z,7.2
2019-02-11T12:16:30.978Z,7.1
2019-02-11T12:17:32.454Z,7.1
2019-02-11T12:18:34.134Z,7.1
2019-02-11T12:19:35.726Z,7.1
2019-02-11T12:20:37.369Z,7.1
2019-02-11T12:21:39.039Z,7.1
2019-02-11T12:22:40.474Z,7.1
2019-02-11T12:23:41.949Z,7.1
2019-02-11T12:24:43.626Z,7.1
2019-02-11T12:25:45.293Z,7.1
2019-02-11T12:26:46.951Z,7.1
2019-02-11T12:27:48.597Z,7.1
2019-02-11T12:28:50.102Z,7.1
2019-02-11T12:29:51.718Z,7.1
2019-02-11T12:30:55.305Z,7.1
2019-02-11T12:31:56.775Z,7.1
2019-02-11T12:32:58.460Z,7.1
2019-02-11T12:34:00.067Z,7.1
2019-02-11T12:35:02.257Z,7.1
2019-02-11T12:36:03.854Z,7.2
2019-02-11T12:37:10.375Z,7.2
2019-02-11T12:38:12.029Z,7.2
2019-02-11T12:39:13.503Z,7.2
2019-02-11T12:40:14.854Z,7.2
2019-02-11T12:41:16.580Z,7.2
2019-02-11T12:42:18.197Z,7.2
2019-02-11T12:43:19.851Z,7.2
2019-02-11T12:44:21.612Z,7.2
2019-02-11T12:45:23.028Z,7.2
2019-02-11T12:46:24.670Z,7.2
2019-02-11T12:47:26.390Z,7.2
2019-02-11T12:48:29.766Z,7.2
2019-02-11T12:49:31.372Z,7.2
2019-02-11T12:50:32.678Z,7.3
2019-02-11T12:51:34.290Z,7.3
2019-02-11T12:52:35.583Z,7.4
2019-02-11T12:53:37.028Z,7.5
2019-02-11T12:54:38.690Z,7.6
2019-02-11T12:55:40.203Z,7.7
2019-02-11T12:56:41.792Z,7.8
2019-02-11T12:57:43.244Z,7.8
2019-02-11T12:58:44.673Z,7.9
2019-02-11T12:59:46.132Z,7.9
2019-02-11T13:00:47.649Z,7.9
2019-02-11T13:01:49.115Z,7.9
2019-02-11T13:02:50.844Z,7.9
2019-02-11T13:03:52.629Z,7.9
2019-02-11T13:04:54.430Z,7.9
2019-02-11T13:05:56.130Z,7.9
2019-02-11T13:06:57.599Z,7.9
2019-02-11T13:07:59.241Z,7.9
2019-02-11T13:09:00.875Z,7.5
2019-02-11T13:10:03.003Z,7.7
2019-02-11T13:11:04.605Z,7.8
2019-02-11T13:12:06.238Z,7.8
2019-02-11T13:13:09.058Z,7.9
2019-02-11T13:14:10.536Z,7.9
2019-02-11T13:15:12.389Z,7.9
2019-02-11T13:16:14.007Z,7.9
2019-02-11T13:17:44.179Z,7.9
2019-02-11T13:18:46.011Z,7.9
2019-02-11T13:19:47.667Z,7.9
2019-02-11T13:20:49.444Z,7.9
2019-02-11T13:21:51.082Z,7.9
2019-02-11T13:22:52.730Z,7.9
2019-02-11T13:23:54.370Z,7.9
2019-02-11T13:24:55.741Z,7.9
2019-02-11T13:25:57.502Z,7.9
2019-02-11T13:26:58.969Z,7.9
2019-02-11T13:28:00.592Z,7.9
2019-02-11T13:29:02.016Z,7.9
2019-02-11T13:30:03.691Z,7.9
2019-02-11T13:31:05.395Z,7.9
2019-02-11T13:32:12.241Z,7.9
2019-02-11T13:33:13.706Z,7.9
2019-02-11T13:34:15.226Z,7.9
2019-02-11T13:35:17.033Z,7.9
2019-02-11T13:36:18.659Z,7.9
2019-02-11T13:37:20.308Z,7.9
2019-02-11T13:38:21.817Z,7.9
2019-02-11T13:39:23.001Z,7.8
2019-02-11T13:40:24.613Z,7.8
2019-02-11T13:41:26.301Z,7.9
2019-02-11T13:42:27.988Z,7.9
2019-02-11T13:43:43.985Z,7.9
2019-02-11T13:44:45.621Z,7.9
2019-02-11T13:45:46.944Z,7.9
2019-02-11T13:46:48.489Z,7.9
2019-02-11T13:48:00.177Z,7.9
2019-02-11T13:49:01.877Z,7.9
2019-02-11T13:50:03.574Z,7.9
2019-02-11T13:51:05.353Z,7.9
2019-02-11T13:52:06.641Z,7.9
2019-02-11T13:53:09.639Z,7.8
2019-02-11T13:54:11.241Z,7.8
2019-02-11T13:55:12.860Z,7.7
2019-02-11T13:56:14.478Z,7.6
2019-02-11T13:57:15.943Z,7.5
2019-02-11T13:58:17.603Z,7.4
2019-02-11T13:59:19.234Z,7.3
2019-02-11T14:00:21.070Z,7.2
2019-02-11T14:01:22.756Z,7.1
2019-02-11T14:02:24.332Z,7.1
2019-02-11T14:03:25.993Z,7.1
2019-02-11T14:04:30.233Z,7.1
2019-02-11T14:05:31.969Z,7.1
2019-02-11T14:06:33.578Z,7.1
2019-02-11T14:07:35.243Z,7.1
2019-02-11T14:08:36.872Z,7.1
2019-02-11T14:09:38.441Z,7.2